Impacts METAR Board
IDs:

KOTH - North Bend/SW Oregon, OR, US

Updated at: 0200 UTC 29 Nov 2020
Potential Impact None Slight Moderate High
Time 28/14Z 28/15Z 28/16Z 28/17Z 28/18Z 28/19Z 28/20Z 28/21Z 28/22Z 28/23Z 29/00Z 29/01Z 29/02Z
Temp36 36 37 40 42 46 49 53 57 55 52 49 47
Dewpt36 36 36 37 39 40 42 46 46 48 46 45 46
Altim30.32 30.32 30.32 30.33 30.35 30.35 30.34 30.33 30.32 30.31 30.31 30.31 30.31
VIS10 10 10 10 10 10 10 8 10 8 9 9 7
CIG-- -- -- 100 -- -- -- -- -- -- -- -- --
CoverCLRCLRCLRBKNFEWCLRCLRCLRCLRCLRCLRCLRCLR
FltCatVFRVFRVFRVFRVFRVFRVFRVFRVFRVFRVFRVFRVFR
WX--------------------------
WDir140150140140160100029002703000140
WSpd7 7 10 8 6 3 0 3 3 5 3 0 4
WGst-- -- -- -- -- -- -- -- -- -- -- -- --
Raw hourly METARs
KOTH 281356Z AUTO 14007KT 10SM CLR 02/02 A3032 RMK AO2 SLP266 T00220022 FZRANO
KOTH 281456Z 15007KT 10SM CLR 02/02 A3032 RMK AO2 SLP267 T00220022 51005
KOTH 281556Z 14010KT 10SM CLR 03/02 A3032 RMK AO2 SLP267 T00280022
KOTH 281656Z 14008KT 10SM BKN100 BKN120 04/03 A3033 RMK AO2 SLP271 T00440028
KOTH 281756Z 16006KT 10SM FEW120 06/04 A3035 RMK AO2 SLP275 T00560039 10056 20022 53008
KOTH 281856Z 10003KT 10SM CLR 08/04 A3035 RMK AO2 SLP277 T00780044
KOTH 281956Z 00000KT 10SM CLR 09/06 A3034 RMK AO2 SLP274 T00940056
KOTH 282056Z 29003KT 8SM CLR 12/08 A3033 RMK AO2 SLP269 T01170078 58006
KOTH 282156Z VRB03KT 10SM CLR 14/08 A3032 RMK AO2 SLP266 T01390078
KOTH 282256Z 27005KT 8SM CLR 13/09 A3031 RMK AO2 SLP264 T01280089
KOTH 282356Z 30003KT 9SM CLR 11/08 A3031 RMK AO2 SLP262 T01110078 10139 20056 56006
KOTH 290056Z 00000KT 9SM CLR 09/07 A3031 RMK AO2 SLP263 T00940072
KOTH 290156Z 14004KT 7SM CLR 08/08 A3031 RMK AO2 SLP262 T00830078



Page loaded:  02:41 UTC  |   06:41 PM Pacific  |   07:41 PM Mountain  |   08:41 PM Central  |   09:41 PM Eastern

 

ADVISORIES

FORECASTS

FORECASTS

OBSERVATIONS

USER TOOLS

ABOUT US